createdAt,value
2019-01-31T20:54:20.495Z,66.61
2019-01-31T20:56:51.236Z,66.42
2019-01-31T20:59:19.958Z,66.52
2019-01-31T21:01:48.626Z,66.49
2019-01-31T21:04:17.555Z,66.56
2019-01-31T21:06:46.260Z,66.73
2019-01-31T21:09:15.174Z,66.64
2019-01-31T21:11:45.885Z,66.67
2019-01-31T21:14:14.521Z,66.80
2019-01-31T21:16:51.385Z,66.63
2019-01-31T21:19:14.500Z,66.67
2019-01-31T21:21:44.159Z,66.66
2019-01-31T21:24:12.536Z,66.63
2019-01-31T21:26:41.166Z,66.63
2019-01-31T21:29:09.666Z,66.73
2019-01-31T21:31:38.099Z,66.69
2019-01-31T21:34:06.465Z,66.62
2019-01-31T21:36:35.681Z,66.58
2019-01-31T21:39:05.569Z,66.54
2019-01-31T21:41:33.818Z,66.53
2019-01-31T21:44:02.084Z,66.45
2019-01-31T21:46:32.630Z,66.38
2019-01-31T21:49:00.912Z,66.32
2019-01-31T21:51:29.169Z,66.23
2019-01-31T21:53:57.435Z,66.14
2019-01-31T21:56:25.897Z,66.12
2019-01-31T21:58:54.041Z,66.09
2019-01-31T22:01:22.232Z,66.00
2019-01-31T22:03:50.444Z,65.96
2019-01-31T22:06:22.788Z,65.81
2019-01-31T22:08:48.535Z,65.77
2019-01-31T22:11:16.732Z,65.68
2019-01-31T22:13:45.808Z,65.59
2019-01-31T22:16:14.019Z,65.50
2019-01-31T22:18:42.215Z,65.42
2019-01-31T22:21:10.397Z,65.39
2019-01-31T22:23:38.579Z,65.39
2019-01-31T22:26:06.789Z,65.27
2019-01-31T22:28:34.972Z,65.27
2019-01-31T22:31:03.166Z,65.28
2019-01-31T22:33:31.354Z,65.26
2019-01-31T22:35:59.568Z,65.20
2019-01-31T22:38:27.745Z,65.17
2019-01-31T22:40:55.924Z,65.12
2019-01-31T22:43:24.110Z,64.95
2019-01-31T22:45:52.298Z,64.79
2019-01-31T22:48:20.486Z,64.76
2019-01-31T22:50:48.675Z,64.67
2019-01-31T22:53:16.897Z,64.65
2019-01-31T22:55:45.083Z,64.43
2019-01-31T22:58:13.281Z,64.40
2019-01-31T23:00:52.020Z,64.45
2019-01-31T23:03:20.214Z,64.38
2019-01-31T23:05:48.389Z,64.22
2019-01-31T23:08:16.580Z,64.33
2019-01-31T23:10:44.844Z,64.26
2019-01-31T23:13:13.027Z,64.27
2019-01-31T23:15:41.212Z,64.20
2019-01-31T23:18:09.511Z,63.93
2019-01-31T23:20:37.692Z,64.01
2019-01-31T23:23:05.886Z,64.08
2019-01-31T23:25:40.279Z,64.00
2019-01-31T23:28:04.273Z,63.89
2019-01-31T23:30:32.454Z,63.81
2019-01-31T23:33:00.650Z,63.75
2019-01-31T23:35:28.834Z,63.78
2019-01-31T23:37:57.065Z,63.80
2019-01-31T23:40:25.243Z,63.73
2019-01-31T23:42:53.475Z,63.82
2019-01-31T23:45:21.655Z,63.66
2019-01-31T23:47:49.858Z,63.83
2019-01-31T23:50:18.030Z,63.79
2019-01-31T23:52:46.217Z,63.73
2019-01-31T23:55:15.850Z,63.72
2019-01-31T23:57:44.038Z,63.72
